Time;durP1;ratioP1;P1;durP2;ratioP2;P2;SDS_P1;SDS_P2;PMS_P1;PMS_P2;Temp;Humidity;BMP_temperature;BMP_pressure;BME280_temperature;BME280_humidity;BME280_pressure;Samples;Min_cycle;Max_cycle;Signal;HPM_P1;HPM_P2
2023/04/15 00:01:49;;;;;;;9.03;4.07;;;;;;;;;;5113822;28;20658;-76
2023/04/15 00:04:15;;;;;;;6.10;3.73;;;;;;;;;;5113613;28;20717;-77
2023/04/15 00:06:42;;;;;;;5.93;3.60;;;;;;;;;;5113709;28;20205;-76
2023/04/15 00:09:08;;;;;;;6.67;3.63;;;;;;;;;;5113164;28;20211;-76
2023/04/15 00:11:34;;;;;;;6.53;3.70;;;;;;;;;;5113864;28;20294;-76
2023/04/15 00:14:01;;;;;;;5.27;3.57;;;;;;;;;;5113856;28;20226;-76
2023/04/15 00:16:27;;;;;;;4.60;3.27;;;;;;;;;;5113908;28;20223;-77
2023/04/15 00:18:53;;;;;;;7.20;3.80;;;;;;;;;;5113750;28;20666;-76
2023/04/15 00:21:20;;;;;;;8.87;3.40;;;;;;;;;;5113573;28;20207;-76
2023/04/15 00:23:51;;;;;;;6.47;3.60;;;;;;;;;;5114257;28;20219;-76
2023/04/15 00:26:18;;;;;;;7.37;3.60;;;;;;;;;;5114130;28;20184;-76
2023/04/15 00:28:44;;;;;;;7.80;3.63;;;;;;;;;;5113714;28;20204;-76
2023/04/15 00:31:10;;;;;;;10.47;3.70;;;;;;;;;;5113751;28;20276;-76
2023/04/15 00:33:37;;;;;;;6.20;3.60;;;;;;;;;;5113688;28;20223;-76
2023/04/15 00:36:03;;;;;;;7.43;3.70;;;;;;;;;;5113717;28;20199;-76
2023/04/15 00:38:29;;;;;;;6.17;3.67;;;;;;;;;;5113863;28;20199;-76
2023/04/15 00:40:56;;;;;;;9.03;3.67;;;;;;;;;;5113799;28;20199;-76
2023/04/15 00:43:22;;;;;;;10.17;3.63;;;;;;;;;;5113328;28;20223;-76
2023/04/15 00:45:49;;;;;;;5.07;3.70;;;;;;;;;;5113703;28;20294;-76
2023/04/15 00:48:16;;;;;;;5.63;3.30;;;;;;;;;;5113772;28;20201;-76
2023/04/15 00:50:42;;;;;;;6.27;3.53;;;;;;;;;;5112535;28;20199;-76
2023/04/15 00:53:08;;;;;;;7.20;3.70;;;;;;;;;;5117434;28;20238;-76
2023/04/15 00:55:38;;;;;;;7.10;3.50;;;;;;;;;;5117391;28;20666;-76
2023/04/15 00:58:04;;;;;;;5.20;3.30;;;;;;;;;;5117282;28;20716;-76
2023/04/15 01:00:30;;;;;;;7.30;4.30;;;;;;;;;;5117592;28;20207;-76
2023/04/15 01:02:57;;;;;;;4.83;3.60;;;;;;;;;;5118008;28;20230;-76
2023/04/15 01:05:23;;;;;;;10.87;4.27;;;;;;;;;;5117174;28;20685;-76
2023/04/15 01:07:50;;;;;;;6.67;3.77;;;;;;;;;;5117504;28;20203;-76
2023/04/15 01:10:16;;;;;;;5.43;3.77;;;;;;;;;;5117457;28;20203;-76
2023/04/15 01:12:43;;;;;;;6.33;3.93;;;;;;;;;;5117148;28;20223;-76
2023/04/15 01:15:10;;;;;;;5.87;3.57;;;;;;;;;;5116948;28;20678;-76
2023/04/15 01:17:37;;;;;;;7.57;3.87;;;;;;;;;;5117074;28;20252;-76
2023/04/15 01:20:04;;;;;;;6.97;3.83;;;;;;;;;;5117333;28;20275;-76
2023/04/15 01:22:30;;;;;;;6.60;3.80;;;;;;;;;;5116835;28;20223;-76
2023/04/15 01:25:08;;;;;;;8.03;4.10;;;;;;;;;;5117177;28;20203;-76
2023/04/15 01:27:35;;;;;;;9.63;4.20;;;;;;;;;;5116986;28;20312;-76
2023/04/15 01:30:02;;;;;;;8.10;4.17;;;;;;;;;;5116818;28;20203;-76
2023/04/15 01:32:29;;;;;;;6.83;3.97;;;;;;;;;;5116889;28;20230;-76
2023/04/15 01:34:56;;;;;;;6.53;3.97;;;;;;;;;;5116730;28;20211;-76
2023/04/15 01:37:22;;;;;;;4.43;3.83;;;;;;;;;;5116892;28;20257;-76
2023/04/15 01:39:48;;;;;;;7.83;4.50;;;;;;;;;;5116544;28;20673;-76
2023/04/15 01:42:15;;;;;;;9.50;4.20;;;;;;;;;;5116760;28;20205;-76
2023/04/15 01:44:41;;;;;;;8.17;4.30;;;;;;;;;;5116728;28;20200;-76
2023/04/15 01:47:07;;;;;;;7.87;4.43;;;;;;;;;;5116215;28;20573;-76
2023/04/15 01:49:34;;;;;;;7.70;4.20;;;;;;;;;;5116106;28;20215;-76
2023/04/15 01:52:00;;;;;;;7.83;4.30;;;;;;;;;;5116107;28;20203;-76
2023/04/15 01:54:26;;;;;;;7.43;3.73;;;;;;;;;;5115945;28;20203;-76
2023/04/15 01:56:53;;;;;;;7.03;4.30;;;;;;;;;;5115961;28;20230;-76
2023/04/15 01:59:19;;;;;;;9.00;4.67;;;;;;;;;;5115869;28;20200;-76
2023/04/15 02:01:46;;;;;;;6.63;4.20;;;;;;;;;;5115852;28;20302;-76
2023/04/15 02:04:15;;;;;;;8.07;4.27;;;;;;;;;;5115872;28;20287;-76
2023/04/15 02:06:42;;;;;;;7.47;4.37;;;;;;;;;;5115819;28;20199;-75
2023/04/15 02:09:08;;;;;;;7.37;4.67;;;;;;;;;;5116316;28;20210;-76
2023/04/15 02:11:36;;;;;;;7.20;4.33;;;;;;;;;;5115834;28;20250;-76
2023/04/15 02:14:03;;;;;;;11.27;4.57;;;;;;;;;;5116163;28;20223;-76
2023/04/15 02:16:29;;;;;;;7.10;4.40;;;;;;;;;;5116140;28;20206;-76
2023/04/15 02:18:55;;;;;;;11.73;4.77;;;;;;;;;;5115595;28;20298;-76
2023/04/15 02:21:21;;;;;;;9.60;4.70;;;;;;;;;;5116464;28;20203;-76
2023/04/15 02:23:48;;;;;;;9.50;4.70;;;;;;;;;;5115928;28;20219;-76
2023/04/15 02:26:14;;;;;;;8.60;4.63;;;;;;;;;;5115988;28;20252;-76
2023/04/15 02:28:40;;;;;;;9.73;5.33;;;;;;;;;;5115905;28;20199;-76
2023/04/15 02:31:08;;;;;;;7.80;4.57;;;;;;;;;;5115891;28;20203;-76
2023/04/15 02:33:35;;;;;;;9.77;4.93;;;;;;;;;;5115390;28;20273;-76
2023/04/15 02:36:02;;;;;;;8.07;4.80;;;;;;;;;;5115726;28;20209;-76
2023/04/15 02:38:28;;;;;;;13.93;4.60;;;;;;;;;;5115271;28;20234;-76
2023/04/15 02:40:54;;;;;;;6.80;4.30;;;;;;;;;;5115387;28;20207;-76
2023/04/15 02:43:20;;;;;;;8.47;4.83;;;;;;;;;;5115531;28;20592;-76
2023/04/15 02:45:47;;;;;;;9.97;5.17;;;;;;;;;;5115300;28;20580;-76
2023/04/15 02:48:13;;;;;;;6.90;4.77;;;;;;;;;;5115527;28;20256;-76
2023/04/15 02:50:39;;;;;;;8.67;4.63;;;;;;;;;;5115447;28;20206;-76
2023/04/15 02:53:06;;;;;;;5.67;4.60;;;;;;;;;;5115305;28;20234;-76
2023/04/15 02:55:32;;;;;;;8.67;5.10;;;;;;;;;;5115356;27;20207;-76
2023/04/15 02:57:59;;;;;;;7.30;4.87;;;;;;;;;;5115249;28;20226;-76
2023/04/15 03:00:26;;;;;;;8.03;4.83;;;;;;;;;;5115249;28;20278;-76
2023/04/15 03:02:57;;;;;;;8.13;4.80;;;;;;;;;;5115143;28;20233;-76
2023/04/15 03:05:24;;;;;;;8.40;5.03;;;;;;;;;;5115135;28;20195;-77
2023/04/15 03:07:51;;;;;;;7.53;4.63;;;;;;;;;;5115103;27;20230;-76
2023/04/15 03:10:17;;;;;;;8.80;5.03;;;;;;;;;;5114730;28;20230;-76
2023/04/15 03:12:44;;;;;;;8.37;4.67;;;;;;;;;;5114854;28;20223;-77
2023/04/15 03:15:10;;;;;;;8.83;4.53;;;;;;;;;;5113575;28;20644;-76
2023/04/15 03:17:36;;;;;;;9.40;4.73;;;;;;;;;;5114486;28;20284;-76
2023/04/15 03:20:03;;;;;;;7.87;4.57;;;;;;;;;;5114835;28;20187;-76
2023/04/15 03:22:30;;;;;;;8.50;4.53;;;;;;;;;;5114334;28;20765;-76
2023/04/15 03:24:56;;;;;;;7.97;4.73;;;;;;;;;;5114712;28;20222;-76
2023/04/15 03:27:23;;;;;;;6.13;4.10;;;;;;;;;;5114614;28;20206;-77
2023/04/15 03:29:49;;;;;;;6.83;4.23;;;;;;;;;;5114645;28;20203;-76
2023/04/15 03:32:15;;;;;;;6.40;4.37;;;;;;;;;;5114550;28;20199;-76
2023/04/15 03:34:41;;;;;;;6.50;4.37;;;;;;;;;;5114650;28;20217;-76
2023/04/15 03:37:08;;;;;;;8.87;4.73;;;;;;;;;;5114749;28;20241;-76
2023/04/15 03:39:35;;;;;;;7.27;4.17;;;;;;;;;;5114504;28;20339;-76
2023/04/15 03:42:02;;;;;;;8.30;4.47;;;;;;;;;;5114253;28;20206;-76
2023/04/15 03:44:28;;;;;;;8.97;4.83;;;;;;;;;;5114324;28;20203;-76
2023/04/15 03:46:55;;;;;;;7.40;4.50;;;;;;;;;;5114336;28;20203;-76
2023/04/15 03:49:22;;;;;;;6.37;4.40;;;;;;;;;;5114206;28;20203;-76
2023/04/15 03:51:48;;;;;;;6.63;4.60;;;;;;;;;;5113920;28;20551;-76
2023/04/15 03:54:14;;;;;;;7.40;4.43;;;;;;;;;;5114209;28;20592;-76
2023/04/15 03:56:41;;;;;;;6.67;4.57;;;;;;;;;;5114256;28;20215;-76
2023/04/15 03:59:07;;;;;;;6.07;4.40;;;;;;;;;;5114217;28;20588;-76
2023/04/15 04:01:34;;;;;;;7.20;4.60;;;;;;;;;;5114197;28;20207;-76
2023/04/15 04:04:00;;;;;;;8.87;5.30;;;;;;;;;;5114079;28;20223;-76
2023/04/15 04:06:26;;;;;;;7.17;5.00;;;;;;;;;;5113989;28;20210;-76
2023/04/15 04:08:52;;;;;;;9.27;4.57;;;;;;;;;;5113643;28;20661;-76
2023/04/15 04:11:19;;;;;;;7.17;5.00;;;;;;;;;;5114372;28;20638;-76
2023/04/15 04:13:46;;;;;;;9.43;5.80;;;;;;;;;;5113553;28;20223;-76
2023/04/15 04:16:12;;;;;;;9.57;5.00;;;;;;;;;;5114043;28;20207;-76
2023/04/15 04:18:38;;;;;;;9.17;5.10;;;;;;;;;;5113620;28;20226;-76
2023/04/15 04:21:04;;;;;;;7.47;5.30;;;;;;;;;;5113627;28;20203;-76
2023/04/15 04:23:31;;;;;;;8.80;5.23;;;;;;;;;;5113791;28;20227;-76
2023/04/15 04:25:57;;;;;;;8.83;5.70;;;;;;;;;;5116937;28;20210;-76
2023/04/15 04:28:23;;;;;;;7.30;4.90;;;;;;;;;;5120471;28;20199;-76
2023/04/15 04:30:49;;;;;;;9.77;5.50;;;;;;;;;;5120777;28;20206;-76
2023/04/15 04:33:16;;;;;;;7.90;5.37;;;;;;;;;;5121544;28;20223;-76
2023/04/15 04:35:42;;;;;;;8.40;5.20;;;;;;;;;;5120310;28;20203;-76
2023/04/15 04:38:08;;;;;;;10.70;5.80;;;;;;;;;;5120451;28;20248;-76
2023/04/15 04:40:35;;;;;;;6.60;4.90;;;;;;;;;;5121119;28;20202;-76
2023/04/15 04:43:01;;;;;;;8.13;4.60;;;;;;;;;;5120476;27;20231;-76
2023/04/15 04:45:27;;;;;;;7.70;5.17;;;;;;;;;;5120113;28;20670;-76
2023/04/15 04:47:53;;;;;;;8.73;5.33;;;;;;;;;;5120264;28;20696;-76
2023/04/15 04:50:20;;;;;;;9.30;5.17;;;;;;;;;;5120439;28;20210;-76
2023/04/15 04:52:46;;;;;;;9.87;6.00;;;;;;;;;;5120475;28;20223;-76
2023/04/15 04:55:12;;;;;;;6.97;5.23;;;;;;;;;;5120123;28;20257;-76
2023/04/15 04:57:39;;;;;;;9.17;6.30;;;;;;;;;;5119945;28;20222;-76
2023/04/15 05:00:07;;;;;;;10.67;6.20;;;;;;;;;;5119828;28;20574;-76
2023/04/15 05:02:33;;;;;;;7.23;5.40;;;;;;;;;;5120271;27;20219;-76
2023/04/15 05:04:59;;;;;;;9.40;5.57;;;;;;;;;;5120272;28;20199;-76
2023/04/15 05:07:26;;;;;;;10.53;5.47;;;;;;;;;;5120252;27;20209;-76
2023/04/15 05:09:52;;;;;;;10.20;5.60;;;;;;;;;;5120087;28;20211;-76
2023/04/15 05:12:18;;;;;;;9.00;5.60;;;;;;;;;;5119761;27;20242;-76
2023/04/15 05:14:45;;;;;;;9.83;5.83;;;;;;;;;;5119713;28;20198;-76
2023/04/15 05:17:11;;;;;;;9.03;5.17;;;;;;;;;;5119744;28;20215;-76
2023/04/15 05:19:38;;;;;;;8.40;5.80;;;;;;;;;;5119751;28;20684;-76
2023/04/15 05:22:04;;;;;;;6.93;5.17;;;;;;;;;;5119961;28;20199;-76
2023/04/15 05:24:30;;;;;;;7.47;5.30;;;;;;;;;;5120106;28;20203;-76
2023/04/15 05:26:57;;;;;;;8.50;5.30;;;;;;;;;;5120190;28;20306;-76
2023/04/15 05:29:23;;;;;;;7.97;5.37;;;;;;;;;;5119998;28;20199;-76
2023/04/15 05:31:49;;;;;;;8.37;5.80;;;;;;;;;;5119702;28;20203;-76
2023/04/15 05:34:16;;;;;;;9.07;5.50;;;;;;;;;;5119922;28;20278;-76
2023/04/15 05:36:42;;;;;;;10.77;6.00;;;;;;;;;;5118872;27;20230;-76
2023/04/15 05:39:08;;;;;;;7.83;5.67;;;;;;;;;;5116130;28;20231;-76
2023/04/15 05:41:35;;;;;;;9.47;6.03;;;;;;;;;;5116634;28;20199;-76
2023/04/15 05:44:01;;;;;;;7.07;5.10;;;;;;;;;;5116320;28;20276;-76
2023/04/15 05:46:27;;;;;;;7.67;6.20;;;;;;;;;;5116636;28;20211;-76
2023/04/15 05:48:54;;;;;;;11.20;6.37;;;;;;;;;;5116625;28;20203;-76
2023/04/15 05:51:20;;;;;;;11.13;5.70;;;;;;;;;;5116362;28;20203;-76
2023/04/15 05:53:46;;;;;;;9.07;6.23;;;;;;;;;;5116392;28;20268;-76
2023/04/15 05:56:13;;;;;;;9.73;5.73;;;;;;;;;;5116353;28;20211;-76
2023/04/15 05:58:39;;;;;;;9.57;5.67;;;;;;;;;;5116300;28;20588;-76
2023/04/15 06:01:06;;;;;;;6.80;5.13;;;;;;;;;;5116242;28;20230;-77
2023/04/15 06:03:32;;;;;;;8.23;5.33;;;;;;;;;;5115995;28;20296;-76
2023/04/15 06:05:59;;;;;;;9.03;5.37;;;;;;;;;;5115815;28;20203;-76
2023/04/15 06:08:26;;;;;;;8.00;5.50;;;;;;;;;;5116127;28;20230;-76
2023/04/15 06:10:52;;;;;;;8.67;5.40;;;;;;;;;;5116583;28;20298;-76
2023/04/15 06:13:19;;;;;;;8.70;5.20;;;;;;;;;;5115800;28;20227;-76
2023/04/15 06:15:45;;;;;;;8.63;4.93;;;;;;;;;;5116200;28;20203;-76
2023/04/15 06:18:11;;;;;;;8.70;5.00;;;;;;;;;;5115682;28;20233;-76
2023/04/15 06:20:38;;;;;;;7.63;5.00;;;;;;;;;;5116052;28;20256;-76
2023/04/15 06:23:04;;;;;;;7.47;4.50;;;;;;;;;;5116243;28;20230;-76
2023/04/15 06:25:30;;;;;;;8.73;4.80;;;;;;;;;;5115534;28;20666;-76
2023/04/15 06:27:56;;;;;;;7.57;4.60;;;;;;;;;;5115767;28;20573;-76
2023/04/15 06:30:23;;;;;;;9.77;4.90;;;;;;;;;;5115729;28;20577;-77
2023/04/15 06:32:49;;;;;;;8.87;4.70;;;;;;;;;;5115338;28;20724;-76
2023/04/15 06:35:15;;;;;;;7.37;4.40;;;;;;;;;;5115644;28;20203;-76
2023/04/15 06:37:42;;;;;;;11.43;4.53;;;;;;;;;;5115496;28;20215;-76
2023/04/15 06:40:08;;;;;;;7.73;4.33;;;;;;;;;;5116140;28;20203;-76
2023/04/15 06:42:35;;;;;;;12.77;4.80;;;;;;;;;;5115297;28;20230;-76
2023/04/15 06:45:02;;;;;;;7.80;4.30;;;;;;;;;;5115136;28;20657;-76
2023/04/15 06:47:28;;;;;;;6.23;4.10;;;;;;;;;;5115285;28;20203;-76
2023/04/15 06:49:54;;;;;;;7.33;4.43;;;;;;;;;;5114331;28;20207;-77
2023/04/15 06:52:20;;;;;;;5.63;3.83;;;;;;;;;;5114949;28;20223;-77
2023/04/15 06:54:47;;;;;;;8.67;4.30;;;;;;;;;;5115086;28;20206;-76
2023/04/15 06:57:13;;;;;;;7.77;4.00;;;;;;;;;;5114895;28;20211;-76
2023/04/15 06:59:39;;;;;;;6.23;4.03;;;;;;;;;;5114774;28;20702;-76
2023/04/15 07:02:08;;;;;;;7.93;4.10;;;;;;;;;;5114945;28;20206;-76
2023/04/15 07:04:34;;;;;;;8.83;4.20;;;;;;;;;;5114898;28;20284;-76
2023/04/15 07:07:01;;;;;;;5.53;4.03;;;;;;;;;;5114919;28;20199;-76
2023/04/15 07:09:27;;;;;;;8.87;4.50;;;;;;;;;;5114882;28;20199;-76
2023/04/15 07:11:53;;;;;;;5.90;4.13;;;;;;;;;;5114845;28;20203;-76
2023/04/15 07:14:20;;;;;;;6.67;4.00;;;;;;;;;;5114419;28;20223;-76
2023/04/15 07:16:46;;;;;;;6.83;3.87;;;;;;;;;;5114821;28;20211;-76
2023/04/15 07:19:12;;;;;;;4.63;3.63;;;;;;;;;;5114452;28;20313;-76
2023/04/15 07:21:39;;;;;;;6.27;3.70;;;;;;;;;;5114651;28;20199;-77
2023/04/15 07:24:05;;;;;;;5.77;3.60;;;;;;;;;;5114619;28;20223;-77
2023/04/15 07:26:31;;;;;;;6.57;4.03;;;;;;;;;;5114409;28;20801;-77
2023/04/15 07:28:58;;;;;;;6.10;4.00;;;;;;;;;;5114610;28;20203;-76
2023/04/15 07:31:24;;;;;;;5.90;4.03;;;;;;;;;;5114543;28;20562;-76
2023/04/15 07:33:50;;;;;;;7.13;4.00;;;;;;;;;;5114127;28;20280;-77
2023/04/15 07:36:17;;;;;;;8.17;4.10;;;;;;;;;;5114085;28;20666;-77
2023/04/15 07:38:43;;;;;;;7.90;4.13;;;;;;;;;;5114273;28;20317;-77
2023/04/15 07:41:10;;;;;;;8.23;3.83;;;;;;;;;;5114158;28;20207;-76
2023/04/15 07:43:37;;;;;;;6.87;3.70;;;;;;;;;;5114264;28;20272;-76
2023/04/15 07:46:03;;;;;;;6.27;4.20;;;;;;;;;;5114021;28;20249;-77
2023/04/15 07:48:30;;;;;;;8.07;3.93;;;;;;;;;;5114745;28;20206;-77
2023/04/15 07:50:56;;;;;;;8.90;3.93;;;;;;;;;;5114035;28;20210;-77
2023/04/15 07:53:22;;;;;;;5.90;3.63;;;;;;;;;;5114033;28;20223;-77
2023/04/15 07:55:49;;;;;;;7.83;3.90;;;;;;;;;;5114147;28;20298;-76
2023/04/15 07:58:16;;;;;;;5.17;3.73;;;;;;;;;;5113832;28;20234;-77
2023/04/15 08:00:42;;;;;;;6.67;4.13;;;;;;;;;;5113383;28;20207;-77
2023/04/15 08:03:08;;;;;;;5.37;3.70;;;;;;;;;;5113822;28;20223;-76
2023/04/15 08:05:34;;;;;;;5.67;3.67;;;;;;;;;;5113715;28;20210;-77
2023/04/15 08:08:01;;;;;;;5.87;3.40;;;;;;;;;;5113688;28;20203;-77
2023/04/15 08:10:29;;;;;;;7.60;3.97;;;;;;;;;;5114039;28;20221;-77
2023/04/15 08:12:56;;;;;;;7.07;3.90;;;;;;;;;;5113465;28;20227;-77
2023/04/15 08:15:22;;;;;;;4.47;3.50;;;;;;;;;;5113865;28;20208;-77
2023/04/15 08:17:48;;;;;;;7.47;3.80;;;;;;;;;;5113368;28;20211;-77
2023/04/15 08:20:15;;;;;;;6.67;3.23;;;;;;;;;;5113646;28;20227;-77
2023/04/15 08:22:41;;;;;;;6.30;4.13;;;;;;;;;;5113638;28;20234;-76
2023/04/15 08:25:07;;;;;;;9.03;3.80;;;;;;;;;;5114191;28;20212;-76
2023/04/15 08:27:34;;;;;;;5.73;3.80;;;;;;;;;;5113653;28;20620;-76
2023/04/15 08:30:00;;;;;;;6.77;4.10;;;;;;;;;;5113415;28;20206;-76
2023/04/15 08:32:26;;;;;;;4.57;3.80;;;;;;;;;;5113220;28;20657;-76
2023/04/15 08:34:53;;;;;;;10.80;3.97;;;;;;;;;;5113206;28;20684;-76
2023/04/15 08:37:19;;;;;;;10.00;3.97;;;;;;;;;;5113095;28;20492;-76
2023/04/15 08:39:46;;;;;;;6.87;3.33;;;;;;;;;;5113251;28;20311;-76
2023/04/15 08:42:13;;;;;;;5.70;3.60;;;;;;;;;;5113382;28;20214;-76
2023/04/15 08:44:40;;;;;;;6.37;4.03;;;;;;;;;;5113186;28;20671;-76
2023/04/15 08:47:08;;;;;;;5.50;3.80;;;;;;;;;;5113192;28;20218;-76
2023/04/15 08:49:35;;;;;;;7.63;4.00;;;;;;;;;;5113030;28;20197;-76
2023/04/15 08:52:03;;;;;;;6.27;3.47;;;;;;;;;;5113078;28;20205;-76
2023/04/15 08:54:29;;;;;;;6.50;4.00;;;;;;;;;;5113035;28;20212;-76
2023/04/15 08:56:57;;;;;;;5.30;3.63;;;;;;;;;;5113379;28;20205;-76
2023/04/15 08:59:23;;;;;;;6.63;3.30;;;;;;;;;;5112785;28;20559;-76
2023/04/15 09:01:50;;;;;;;6.27;3.50;;;;;;;;;;5114177;28;20213;-76
2023/04/15 09:04:17;;;;;;;5.67;3.20;;;;;;;;;;5113766;28;20230;-76
2023/04/15 09:06:43;;;;;;;6.17;3.20;;;;;;;;;;5112945;28;20216;-76
2023/04/15 09:09:09;;;;;;;5.07;2.63;;;;;;;;;;5113164;28;20200;-75
2023/04/15 09:11:36;;;;;;;6.83;3.00;;;;;;;;;;5113346;28;20213;-75
2023/04/15 09:14:02;;;;;;;5.97;2.40;;;;;;;;;;5116289;28;20227;-76
2023/04/15 09:16:28;;;;;;;5.97;2.37;;;;;;;;;;5116797;28;20205;-76
2023/04/15 09:18:55;;;;;;;5.83;2.63;;;;;;;;;;5116552;28;20235;-75
2023/04/15 09:21:22;;;;;;;5.43;2.60;;;;;;;;;;5116965;28;20206;-76
2023/04/15 09:23:55;;;;;;;3.47;2.20;;;;;;;;;;5117010;28;20232;-76
2023/04/15 09:26:35;;;;;;;2.93;2.00;;;;;;;;;;5116714;28;20638;-75
2023/04/15 09:29:08;;;;;;;3.77;2.33;;;;;;;;;;5116964;28;20198;-76
2023/04/15 09:31:35;;;;;;;2.90;2.27;;;;;;;;;;5116742;28;20206;-76
2023/04/15 09:34:01;;;;;;;2.87;2.50;;;;;;;;;;5116706;28;20253;-75
2023/04/15 09:36:29;;;;;;;4.47;2.80;;;;;;;;;;5116927;28;20205;-76
2023/04/15 09:38:59;;;;;;;5.43;2.70;;;;;;;;;;5116033;28;20269;-76
2023/04/15 09:41:26;;;;;;;4.00;2.47;;;;;;;;;;5116446;28;20288;-75
2023/04/15 09:43:52;;;;;;;4.37;2.43;;;;;;;;;;5116088;28;20227;-76
2023/04/15 09:46:18;;;;;;;4.43;2.40;;;;;;;;;;5116102;28;20202;-76
2023/04/15 09:48:45;;;;;;;2.10;1.90;;;;;;;;;;5116213;28;20199;-76
2023/04/15 09:51:11;;;;;;;4.00;2.13;;;;;;;;;;5115948;28;20202;-76
2023/04/15 09:53:38;;;;;;;2.90;2.30;;;;;;;;;;5115926;28;20235;-76
2023/04/15 09:56:06;;;;;;;3.77;1.83;;;;;;;;;;5116091;28;20213;-73
2023/04/15 09:58:33;;;;;;;3.97;2.00;;;;;;;;;;5116101;28;20398;-75
2023/04/15 10:01:01;;;;;;;4.80;1.87;;;;;;;;;;5115995;28;20203;-76
2023/04/15 10:03:28;;;;;;;2.83;1.77;;;;;;;;;;5115672;28;20223;-75
2023/04/15 10:05:58;;;;;;;3.00;2.30;;;;;;;;;;5115616;28;20207;-76
2023/04/15 10:08:25;;;;;;;5.30;2.40;;;;;;;;;;5115920;28;20204;-75
2023/04/15 10:10:52;;;;;;;2.67;1.97;;;;;;;;;;5116053;27;20512;-76
2023/04/15 10:13:19;;;;;;;3.83;2.37;;;;;;;;;;5116025;28;20231;-76
2023/04/15 10:15:48;;;;;;;4.03;2.20;;;;;;;;;;5115872;28;20205;-76
2023/04/15 10:18:16;;;;;;;3.07;2.10;;;;;;;;;;5115459;28;20223;-75
2023/04/15 10:20:42;;;;;;;3.10;2.30;;;;;;;;;;5115639;28;20230;-76
2023/04/15 10:23:09;;;;;;;4.83;2.20;;;;;;;;;;5115423;28;20233;-76
2023/04/15 10:25:36;;;;;;;6.40;2.57;;;;;;;;;;5115377;28;20206;-76
2023/04/15 10:28:03;;;;;;;4.33;2.60;;;;;;;;;;5115375;28;20199;-74
2023/04/15 10:30:30;;;;;;;4.97;2.50;;;;;;;;;;5115640;28;20207;-76
2023/04/15 10:32:57;;;;;;;3.10;2.37;;;;;;;;;;5114462;28;20268;-76
2023/04/15 10:35:23;;;;;;;5.53;3.00;;;;;;;;;;5115364;28;20207;-76
2023/04/15 10:37:50;;;;;;;5.10;2.43;;;;;;;;;;5115586;28;20199;-76
2023/04/15 10:40:26;;;;;;;4.13;2.50;;;;;;;;;;5115531;28;20231;-76
2023/04/15 10:42:53;;;;;;;3.30;1.87;;;;;;;;;;5114960;28;20272;-75
2023/04/15 10:45:20;;;;;;;3.23;2.30;;;;;;;;;;5115170;27;20210;-76
2023/04/15 10:47:46;;;;;;;2.90;2.07;;;;;;;;;;5115304;28;20206;-75
2023/04/15 10:50:12;;;;;;;5.70;2.50;;;;;;;;;;5115303;28;20222;-76
2023/04/15 10:52:42;;;;;;;2.60;2.30;;;;;;;;;;5114892;28;20709;-75
2023/04/15 10:55:15;;;;;;;4.57;2.50;;;;;;;;;;5115243;28;20206;-75
2023/04/15 10:57:42;;;;;;;3.00;2.30;;;;;;;;;;5114740;28;20210;-75
2023/04/15 11:00:10;;;;;;;4.43;2.60;;;;;;;;;;5114502;28;20234;-75
2023/04/15 11:02:46;;;;;;;3.27;2.63;;;;;;;;;;5114915;28;20276;-76
2023/04/15 11:05:12;;;;;;;3.20;2.47;;;;;;;;;;5114757;28;20666;-76
2023/04/15 11:07:45;;;;;;;4.27;2.80;;;;;;;;;;5114832;28;20210;-76
2023/04/15 11:10:17;;;;;;;7.17;3.07;;;;;;;;;;5114739;28;20202;-75
2023/04/15 11:12:47;;;;;;;4.43;2.90;;;;;;;;;;5114286;28;20333;-76
2023/04/15 11:15:33;;;;;;;4.50;2.80;;;;;;;;;;5114485;28;20214;-76
2023/04/15 11:18:00;;;;;;;6.33;3.10;;;;;;;;;;5114486;28;20215;-76
2023/04/15 11:20:27;;;;;;;3.80;2.73;;;;;;;;;;5114266;28;20693;-75
2023/04/15 11:22:54;;;;;;;3.97;2.50;;;;;;;;;;5114253;28;20242;-75
2023/04/15 11:25:27;;;;;;;3.43;2.27;;;;;;;;;;5114548;28;20302;-75
2023/04/15 11:27:54;;;;;;;3.07;2.10;;;;;;;;;;5114088;28;20211;-76
2023/04/15 11:30:27;;;;;;;4.23;2.40;;;;;;;;;;5113856;28;20331;-75
2023/04/15 11:33:01;;;;;;;4.80;2.57;;;;;;;;;;5114342;28;20231;-76
2023/04/15 11:35:27;;;;;;;4.83;2.23;;;;;;;;;;5113626;28;20654;-75
2023/04/15 11:37:54;;;;;;;4.30;2.67;;;;;;;;;;5114575;28;20203;-76
2023/04/15 11:40:24;;;;;;;4.67;2.40;;;;;;;;;;5114069;28;20698;-75
2023/04/15 11:43:06;;;;;;;5.37;2.47;;;;;;;;;;5114058;28;20227;-74
2023/04/15 11:45:32;;;;;;;5.03;2.90;;;;;;;;;;5114237;28;20256;-75
2023/04/15 11:48:05;;;;;;;4.27;2.57;;;;;;;;;;5113845;28;20207;-75
2023/04/15 11:50:31;;;;;;;2.80;2.47;;;;;;;;;;5114267;28;20199;-76
2023/04/15 11:53:00;;;;;;;6.43;2.77;;;;;;;;;;5114049;28;20702;-75
2023/04/15 11:55:26;;;;;;;3.93;2.30;;;;;;;;;;5113490;28;20213;-76
2023/04/15 11:58:08;;;;;;;2.67;2.27;;;;;;;;;;5113842;28;20546;-76
2023/04/15 12:00:34;;;;;;;3.97;2.47;;;;;;;;;;5113564;28;20230;-76
2023/04/15 12:03:13;;;;;;;5.07;3.00;;;;;;;;;;5113945;28;20249;-77
2023/04/15 12:05:58;;;;;;;3.60;2.60;;;;;;;;;;5113722;28;20210;-76
2023/04/15 12:08:25;;;;;;;4.50;2.63;;;;;;;;;;5113765;28;20661;-76
2023/04/15 12:10:51;;;;;;;5.70;2.80;;;;;;;;;;5113683;28;20206;-75
2023/04/15 12:13:17;;;;;;;4.23;2.50;;;;;;;;;;5113511;28;20716;-76
2023/04/15 12:15:43;;;;;;;4.53;2.70;;;;;;;;;;5113218;28;20496;-76
2023/04/15 12:18:17;;;;;;;2.20;2.00;;;;;;;;;;5113189;28;20207;-75
2023/04/15 12:20:44;;;;;;;6.27;2.60;;;;;;;;;;5114247;28;20238;-76
2023/04/15 12:23:10;;;;;;;3.70;2.50;;;;;;;;;;5113218;28;20586;-75
2023/04/15 12:25:36;;;;;;;5.53;2.70;;;;;;;;;;5113632;28;20210;-74
2023/04/15 12:28:10;;;;;;;3.30;2.27;;;;;;;;;;5113468;28;20203;-76
2023/04/15 12:30:36;;;;;;;3.90;2.87;;;;;;;;;;5113956;28;20187;-74
2023/04/15 12:33:03;;;;;;;6.90;3.30;;;;;;;;;;5113767;28;20223;-73
2023/04/15 12:35:30;;;;;;;5.63;4.00;;;;;;;;;;5113579;28;20207;-72
2023/04/15 12:37:56;;;;;;;6.13;4.30;;;;;;;;;;5113389;28;20204;-73
2023/04/15 12:40:22;;;;;;;5.90;4.47;;;;;;;;;;5113265;28;20223;-74
2023/04/15 12:42:48;;;;;;;4.50;4.00;;;;;;;;;;5113264;28;20230;-74
2023/04/15 12:45:14;;;;;;;4.33;3.93;;;;;;;;;;5113078;28;20211;-74
2023/04/15 12:47:41;;;;;;;4.67;3.73;;;;;;;;;;5116151;28;20203;-74
2023/04/15 12:50:07;;;;;;;5.80;4.77;;;;;;;;;;5117557;28;20202;-74
2023/04/15 12:52:33;;;;;;;6.80;4.80;;;;;;;;;;5117496;28;20235;-74
2023/04/15 12:55:00;;;;;;;4.70;3.40;;;;;;;;;;5117316;28;20203;-75
2023/04/15 12:57:26;;;;;;;4.87;3.80;;;;;;;;;;5117505;28;20203;-75
2023/04/15 12:59:53;;;;;;;4.90;3.53;;;;;;;;;;5117233;28;20223;-75
2023/04/15 13:02:19;;;;;;;3.83;3.33;;;;;;;;;;5117422;28;20235;-76
2023/04/15 13:04:46;;;;;;;3.30;2.93;;;;;;;;;;5117241;28;20680;-75
2023/04/15 13:07:14;;;;;;;4.50;3.57;;;;;;;;;;5117467;28;20570;-76
2023/04/15 13:09:40;;;;;;;3.93;2.70;;;;;;;;;;5117169;28;20202;-76
2023/04/15 13:12:06;;;;;;;5.83;2.90;;;;;;;;;;5117166;28;20199;-76
2023/04/15 13:14:33;;;;;;;3.03;2.40;;;;;;;;;;5117019;28;20207;-76
2023/04/15 13:16:59;;;;;;;3.83;2.10;;;;;;;;;;5117277;28;20203;-76
2023/04/15 13:19:25;;;;;;;4.73;2.33;;;;;;;;;;5116676;28;20211;-76
2023/04/15 13:21:52;;;;;;;4.13;2.20;;;;;;;;;;5116807;28;20685;-76
2023/04/15 13:24:18;;;;;;;3.00;2.30;;;;;;;;;;5116970;28;20234;-76
2023/04/15 13:26:44;;;;;;;3.03;2.47;;;;;;;;;;5116917;28;20207;-75
2023/04/15 13:29:11;;;;;;;2.87;1.90;;;;;;;;;;5116822;28;20203;-75
2023/04/15 13:31:37;;;;;;;4.23;2.10;;;;;;;;;;5116644;28;20662;-75
2023/04/15 13:34:03;;;;;;;2.00;1.43;;;;;;;;;;5116513;28;20231;-75
2023/04/15 13:36:30;;;;;;;3.20;1.70;;;;;;;;;;5116851;28;20203;-76
2023/04/15 13:38:56;;;;;;;2.83;1.23;;;;;;;;;;5117205;27;20210;-76
2023/04/15 13:41:22;;;;;;;1.87;1.50;;;;;;;;;;5116537;28;20223;-76
2023/04/15 13:43:49;;;;;;;1.60;1.00;;;;;;;;;;5116330;28;20232;-75
2023/04/15 13:46:15;;;;;;;1.63;1.20;;;;;;;;;;5116402;28;20238;-75
2023/04/15 13:48:41;;;;;;;1.40;0.83;;;;;;;;;;5116444;28;20567;-75
2023/04/15 13:51:08;;;;;;;1.63;0.90;;;;;;;;;;5116486;28;20199;-76
2023/04/15 13:53:34;;;;;;;1.27;0.90;;;;;;;;;;5116180;28;20236;-76
2023/04/15 13:56:01;;;;;;;1.80;1.13;;;;;;;;;;5116109;28;20676;-76
2023/04/15 13:58:27;;;;;;;1.60;1.23;;;;;;;;;;5115669;28;20210;-76
2023/04/15 14:00:53;;;;;;;1.93;1.30;;;;;;;;;;5116262;28;20223;-76
2023/04/15 14:03:19;;;;;;;2.13;0.93;;;;;;;;;;5116100;28;20223;-77
2023/04/15 14:05:46;;;;;;;1.70;1.07;;;;;;;;;;5116011;28;20204;-77
2023/04/15 14:08:12;;;;;;;1.27;1.00;;;;;;;;;;5115991;28;20236;-75
2023/04/15 14:10:38;;;;;;;1.63;0.80;;;;;;;;;;5116039;28;20200;-77
2023/04/15 14:13:05;;;;;;;1.90;1.00;;;;;;;;;;5115480;28;20612;-76
2023/04/15 14:15:31;;;;;;;1.53;1.10;;;;;;;;;;5115989;28;20287;-77
2023/04/15 14:17:57;;;;;;;1.43;1.00;;;;;;;;;;5116208;28;20214;-75
2023/04/15 14:20:23;;;;;;;2.13;1.20;;;;;;;;;;5115718;28;20284;-76
2023/04/15 14:22:50;;;;;;;2.33;1.27;;;;;;;;;;5115802;28;20227;-77
2023/04/15 14:25:16;;;;;;;2.37;0.93;;;;;;;;;;5116415;28;20214;-76
2023/04/15 14:27:42;;;;;;;0.80;0.80;;;;;;;;;;5115401;28;20658;-75
2023/04/15 14:30:09;;;;;;;2.10;1.00;;;;;;;;;;5115136;28;20208;-76
2023/04/15 14:32:35;;;;;;;2.30;1.03;;;;;;;;;;5115480;28;20237;-77
2023/04/15 14:35:01;;;;;;;0.97;0.80;;;;;;;;;;5115537;28;20203;-75
2023/04/15 14:37:28;;;;;;;1.00;0.90;;;;;;;;;;5115298;28;20254;-75
2023/04/15 14:39:54;;;;;;;1.40;0.77;;;;;;;;;;5115091;28;20207;-76
2023/04/15 14:42:20;;;;;;;2.10;0.90;;;;;;;;;;5115316;28;20234;-75